createdAt,value
2023-02-12T00:00:04.231Z,581.00
2023-02-12T00:00:33.929Z,582.00
2023-02-12T00:01:04.031Z,582.00
2023-02-12T00:01:34.111Z,583.00
2023-02-12T00:02:04.265Z,584.00
2023-02-12T00:02:34.301Z,587.00
2023-02-12T00:03:04.304Z,587.00
2023-02-12T00:03:34.415Z,586.00
2023-02-12T00:04:04.483Z,587.00
2023-02-12T00:04:34.546Z,586.00
2023-02-12T00:05:04.622Z,585.00
2023-02-12T00:05:34.705Z,584.00
2023-02-12T00:06:04.782Z,582.00
2023-02-12T00:06:34.883Z,582.00
2023-02-12T00:07:04.980Z,583.00
2023-02-12T00:07:35.062Z,583.00
2023-02-12T00:08:05.140Z,581.00
2023-02-12T00:08:35.275Z,581.00
2023-02-12T00:09:05.382Z,580.00
2023-02-12T00:09:35.380Z,578.00
2023-02-12T00:10:05.499Z,578.00
2023-02-12T00:10:35.487Z,578.00
2023-02-12T00:11:05.611Z,579.00
2023-02-12T00:11:35.613Z,579.00
2023-02-12T00:12:05.609Z,579.00
2023-02-12T00:12:35.599Z,579.00
2023-02-12T00:13:05.718Z,581.00
2023-02-12T00:13:35.709Z,580.00
2023-02-12T00:14:05.718Z,581.00
2023-02-12T00:14:35.821Z,582.00
2023-02-12T00:15:05.937Z,583.00
2023-02-12T00:15:36.081Z,584.00
2023-02-12T00:16:06.006Z,584.00
2023-02-12T00:16:36.007Z,586.00
2023-02-12T00:17:06.129Z,586.00
2023-02-12T00:17:36.134Z,584.00
2023-02-12T00:18:06.281Z,584.00
2023-02-12T00:18:36.260Z,583.00
2023-02-12T00:19:06.260Z,581.00
2023-02-12T00:19:36.364Z,581.00
2023-02-12T00:20:06.478Z,578.00
2023-02-12T00:20:36.472Z,576.00
2023-02-12T00:21:06.468Z,575.00
2023-02-12T00:21:36.587Z,576.00
2023-02-12T00:22:06.754Z,575.00
2023-02-12T00:22:36.723Z,574.00
2023-02-12T00:23:06.743Z,576.00
2023-02-12T00:23:36.844Z,576.00
2023-02-12T00:24:06.842Z,575.00
2023-02-12T00:24:36.827Z,575.00
2023-02-12T00:25:06.941Z,574.00
2023-02-12T00:25:36.955Z,573.00
2023-02-12T00:26:06.939Z,573.00
2023-02-12T00:26:37.048Z,575.00
2023-02-12T00:27:07.070Z,576.00
2023-02-12T00:27:37.045Z,578.00
2023-02-12T00:28:07.170Z,581.00
2023-02-12T00:28:37.336Z,581.00
2023-02-12T00:29:07.214Z,580.00
2023-02-12T00:29:37.213Z,581.00
2023-02-12T00:30:07.334Z,582.00
2023-02-12T00:30:37.489Z,582.00
2023-02-12T00:31:07.570Z,579.00
2023-02-12T00:31:37.548Z,577.00
2023-02-12T00:32:07.544Z,578.00
2023-02-12T00:32:37.536Z,579.00
2023-02-12T00:33:07.527Z,579.00
2023-02-12T00:33:37.556Z,582.00
2023-02-12T00:34:07.644Z,583.00
2023-02-12T00:34:37.637Z,585.00
2023-02-12T00:35:07.761Z,585.00
2023-02-12T00:35:37.879Z,584.00
2023-02-12T00:36:07.877Z,583.00
2023-02-12T00:36:37.991Z,585.00
2023-02-12T00:37:08.114Z,586.00
2023-02-12T00:37:38.113Z,586.00
2023-02-12T00:38:08.118Z,585.00
2023-02-12T00:38:38.114Z,586.00
2023-02-12T00:39:08.120Z,586.00
2023-02-12T00:39:38.107Z,586.00
2023-02-12T00:40:08.222Z,584.00
2023-02-12T00:40:38.241Z,582.00
2023-02-12T00:41:08.246Z,580.00
2023-02-12T00:41:38.356Z,581.00
2023-02-12T00:42:08.478Z,582.00
2023-02-12T00:42:38.488Z,582.00
2023-02-12T00:43:08.478Z,584.00
2023-02-12T00:43:38.469Z,584.00
2023-02-12T00:44:08.609Z,584.00
2023-02-12T00:44:38.588Z,584.00
2023-02-12T00:45:08.704Z,586.00
2023-02-12T00:45:38.702Z,586.00
2023-02-12T00:46:08.907Z,587.00
2023-02-12T00:46:39.007Z,586.00
2023-02-12T00:47:08.989Z,586.00
2023-02-12T00:47:39.251Z,584.00
2023-02-12T00:48:08.994Z,581.00
2023-02-12T00:48:38.990Z,581.00
2023-02-12T00:49:09.100Z,580.00
2023-02-12T00:49:39.065Z,580.00
2023-02-12T00:50:09.184Z,580.00
2023-02-12T00:50:39.191Z,579.00
2023-02-12T00:51:09.184Z,579.00
2023-02-12T00:51:39.306Z,579.00
2023-02-12T00:52:09.318Z,579.00
2023-02-12T00:52:39.481Z,578.00
2023-02-12T00:53:09.345Z,578.00
2023-02-12T00:53:39.361Z,578.00
2023-02-12T00:54:09.364Z,577.00
2023-02-12T00:54:39.358Z,577.00
2023-02-12T00:55:09.478Z,576.00
2023-02-12T00:55:39.469Z,576.00
2023-02-12T00:56:09.588Z,577.00
2023-02-12T00:56:39.709Z,577.00
2023-02-12T00:57:09.700Z,577.00
2023-02-12T00:57:39.783Z,577.00
2023-02-12T00:58:09.769Z,577.00
2023-02-12T00:58:39.842Z,577.00
2023-02-12T00:59:09.923Z,576.00
2023-02-12T00:59:39.995Z,573.00
2023-02-12T01:00:10.077Z,575.00
2023-02-12T01:00:40.162Z,574.00
2023-02-12T01:01:10.314Z,576.00
2023-02-12T01:01:40.323Z,575.00
2023-02-12T01:02:10.334Z,578.00
2023-02-12T01:02:40.416Z,577.00
2023-02-12T01:03:10.510Z,576.00
2023-02-12T01:03:40.578Z,575.00
2023-02-12T01:04:10.654Z,574.00
2023-02-12T01:04:40.787Z,572.00
2023-02-12T01:05:10.814Z,572.00
2023-02-12T01:05:40.849Z,572.00
2023-02-12T01:06:10.937Z,574.00
2023-02-12T01:06:41.009Z,574.00
2023-02-12T01:07:11.091Z,572.00
2023-02-12T01:07:41.173Z,573.00
2023-02-12T01:08:11.278Z,575.00
2023-02-12T01:08:41.384Z,575.00
2023-02-12T01:09:11.383Z,575.00
2023-02-12T01:09:41.373Z,576.00
2023-02-12T01:10:11.498Z,577.00
2023-02-12T01:10:41.497Z,577.00
2023-02-12T01:11:11.481Z,578.00
2023-02-12T01:11:41.594Z,579.00
2023-02-12T01:12:11.718Z,578.00
2023-02-12T01:12:41.715Z,577.00
2023-02-12T01:13:11.710Z,576.00
2023-02-12T01:13:41.706Z,577.00
2023-02-12T01:14:11.705Z,578.00
2023-02-12T01:14:41.819Z,576.00
2023-02-12T01:15:11.818Z,577.00
2023-02-12T01:15:41.991Z,575.00
2023-02-12T01:16:12.070Z,577.00
2023-02-12T01:16:42.081Z,577.00
2023-02-12T01:17:12.198Z,575.00
2023-02-12T01:17:42.197Z,575.00
2023-02-12T01:18:12.194Z,575.00
2023-02-12T01:18:42.197Z,575.00
2023-02-12T01:19:12.506Z,575.00
2023-02-12T01:19:42.398Z,577.00
2023-02-12T01:20:12.370Z,576.00
2023-02-12T01:20:42.484Z,576.00
2023-02-12T01:21:12.613Z,575.00
2023-02-12T01:21:42.727Z,575.00
2023-02-12T01:22:12.718Z,575.00
2023-02-12T01:22:42.720Z,575.00
2023-02-12T01:23:12.711Z,576.00
2023-02-12T01:23:42.832Z,576.00
2023-02-12T01:24:12.948Z,575.00
2023-02-12T01:24:43.068Z,576.00
2023-02-12T01:25:13.064Z,577.00
2023-02-12T01:25:43.064Z,575.00
2023-02-12T01:26:13.181Z,576.00
2023-02-12T01:26:43.297Z,576.00
2023-02-12T01:27:13.414Z,573.00
2023-02-12T01:27:43.413Z,575.00
2023-02-12T01:28:13.429Z,577.00
2023-02-12T01:28:43.419Z,577.00
2023-02-12T01:29:13.541Z,577.00
2023-02-12T01:29:43.540Z,578.00
2023-02-12T01:30:13.661Z,578.00
2023-02-12T01:30:43.737Z,578.00
2023-02-12T01:31:13.940Z,576.00
2023-02-12T01:31:43.965Z,576.00
2023-02-12T01:32:13.817Z,574.00
2023-02-12T01:32:43.818Z,575.00
2023-02-12T01:33:13.796Z,573.00
2023-02-12T01:33:43.912Z,572.00
2023-02-12T01:34:13.915Z,573.00
2023-02-12T01:34:44.029Z,572.00
2023-02-12T01:35:14.197Z,572.00
2023-02-12T01:35:44.185Z,574.00
2023-02-12T01:36:14.189Z,573.00
2023-02-12T01:36:44.170Z,573.00
2023-02-12T01:37:14.159Z,572.00
2023-02-12T01:37:44.281Z,573.00
2023-02-12T01:38:14.395Z,574.00
2023-02-12T01:38:44.388Z,574.00
2023-02-12T01:39:14.406Z,572.00
2023-02-12T01:39:44.375Z,573.00
2023-02-12T01:40:14.498Z,574.00
2023-02-12T01:40:44.495Z,574.00
2023-02-12T01:41:14.620Z,576.00
2023-02-12T01:41:44.726Z,576.00
2023-02-12T01:42:14.843Z,574.00
2023-02-12T01:42:44.872Z,572.00
2023-02-12T01:43:14.866Z,570.00
2023-02-12T01:43:44.984Z,569.00
2023-02-12T01:44:15.106Z,570.00
2023-02-12T01:44:45.108Z,572.00
2023-02-12T01:45:15.095Z,572.00
2023-02-12T01:45:45.214Z,572.00
2023-02-12T01:46:15.254Z,573.00
2023-02-12T01:46:45.333Z,572.00
2023-02-12T01:47:15.367Z,574.00
2023-02-12T01:47:45.387Z,574.00
2023-02-12T01:48:15.361Z,576.00
2023-02-12T01:48:45.483Z,577.00
2023-02-12T01:49:15.470Z,575.00
2023-02-12T01:49:45.588Z,574.00
2023-02-12T01:50:15.715Z,574.00
2023-02-12T01:50:45.730Z,574.00
2023-02-12T01:51:15.705Z,575.00
2023-02-12T01:51:45.822Z,577.00
2023-02-12T01:52:15.828Z,577.00
2023-02-12T01:52:45.939Z,576.00
2023-02-12T01:53:15.939Z,575.00
2023-02-12T01:53:45.938Z,575.00
2023-02-12T01:54:16.055Z,573.00
2023-02-12T01:54:46.050Z,572.00
2023-02-12T01:55:16.060Z,572.00
2023-02-12T01:55:46.168Z,570.00
2023-02-12T01:56:16.285Z,570.00
2023-02-12T01:56:46.293Z,570.00
2023-02-12T01:57:16.282Z,569.00
2023-02-12T01:57:46.287Z,570.00
2023-02-12T01:58:16.331Z,569.00
2023-02-12T01:58:46.406Z,568.00
2023-02-12T01:59:16.493Z,569.00
2023-02-12T01:59:46.587Z,571.00
2023-02-12T02:00:16.668Z,571.00
2023-02-12T02:00:46.741Z,572.00
2023-02-12T02:01:16.874Z,572.00
2023-02-12T02:01:46.895Z,572.00
2023-02-12T02:02:16.846Z,570.00
2023-02-12T02:02:46.937Z,569.00
2023-02-12T02:03:17.098Z,570.00
2023-02-12T02:03:47.033Z,568.00
2023-02-12T02:04:17.108Z,571.00
2023-02-12T02:04:47.188Z,571.00
2023-02-12T02:05:17.268Z,574.00
2023-02-12T02:05:47.352Z,572.00
2023-02-12T02:06:17.454Z,572.00
2023-02-12T02:06:47.513Z,574.00
2023-02-12T02:07:17.594Z,573.00
2023-02-12T02:07:47.704Z,570.00
2023-02-12T02:08:17.787Z,571.00
2023-02-12T02:08:47.781Z,571.00
2023-02-12T02:09:17.777Z,571.00
2023-02-12T02:09:47.910Z,571.00
2023-02-12T02:10:17.898Z,571.00
2023-02-12T02:10:47.895Z,570.00
2023-02-12T02:11:18.011Z,571.00
2023-02-12T02:11:48.016Z,571.00
2023-02-12T02:12:18.166Z,573.00
2023-02-12T02:12:48.133Z,573.00
2023-02-12T02:13:18.256Z,572.00
2023-02-12T02:13:48.373Z,572.00
2023-02-12T02:14:18.490Z,573.00
2023-02-12T02:14:48.493Z,572.00
2023-02-12T02:15:18.617Z,571.00
2023-02-12T02:15:48.823Z,571.00
2023-02-12T02:16:18.919Z,571.00
2023-02-12T02:16:48.930Z,572.00
2023-02-12T02:17:19.042Z,572.00
2023-02-12T02:17:49.162Z,570.00
2023-02-12T02:18:19.289Z,571.00
2023-02-12T02:18:49.284Z,571.00
2023-02-12T02:19:19.275Z,571.00
2023-02-12T02:19:49.271Z,571.00
2023-02-12T02:20:19.388Z,571.00
2023-02-12T02:20:49.391Z,571.00
2023-02-12T02:21:19.407Z,572.00
2023-02-12T02:21:49.502Z,572.00
2023-02-12T02:22:19.496Z,572.00
2023-02-12T02:22:49.492Z,570.00
2023-02-12T02:23:19.609Z,570.00
2023-02-12T02:23:49.602Z,569.00
2023-02-12T02:24:19.719Z,568.00
2023-02-12T02:24:49.839Z,569.00
2023-02-12T02:25:19.962Z,570.00
2023-02-12T02:25:50.086Z,570.00
2023-02-12T02:26:20.087Z,569.00
2023-02-12T02:26:50.082Z,568.00
2023-02-12T02:27:20.085Z,568.00
2023-02-12T02:27:50.076Z,568.00
2023-02-12T02:28:20.159Z,567.00
2023-02-12T02:28:50.135Z,568.00
2023-02-12T02:29:20.249Z,568.00
2023-02-12T02:29:50.377Z,570.00
2023-02-12T02:30:20.365Z,571.00
2023-02-12T02:30:50.448Z,572.00
2023-02-12T02:31:20.616Z,573.00
2023-02-12T02:31:50.698Z,573.00
2023-02-12T02:32:20.555Z,574.00
2023-02-12T02:32:50.678Z,576.00
2023-02-12T02:33:20.672Z,577.00
2023-02-12T02:33:50.785Z,579.00
2023-02-12T02:34:20.910Z,579.00
2023-02-12T02:34:50.908Z,580.00
2023-02-12T02:35:21.023Z,581.00
2023-02-12T02:35:51.021Z,581.00
2023-02-12T02:36:21.046Z,579.00
2023-02-12T02:37:00.453Z,580.00
2023-02-12T02:37:21.162Z,581.00
2023-02-12T02:37:51.166Z,581.00
2023-02-12T02:38:21.169Z,582.00
2023-02-12T02:38:51.165Z,581.00
2023-02-12T02:39:21.157Z,580.00
2023-02-12T02:39:51.158Z,579.00
2023-02-12T02:40:21.152Z,579.00
2023-02-12T02:40:51.274Z,578.00
2023-02-12T02:41:21.266Z,577.00
2023-02-12T02:41:51.266Z,577.00
2023-02-12T02:42:21.278Z,578.00
2023-02-12T02:42:51.273Z,578.00
2023-02-12T02:43:21.411Z,578.00
2023-02-12T02:43:51.420Z,578.00
2023-02-12T02:44:21.397Z,578.00
2023-02-12T02:44:51.518Z,578.00
2023-02-12T02:45:21.515Z,579.00
2023-02-12T02:45:51.636Z,579.00
2023-02-12T02:46:21.778Z,580.00
2023-02-12T02:46:51.830Z,581.00
2023-02-12T02:47:21.764Z,581.00
2023-02-12T02:47:51.881Z,580.00
2023-02-12T02:48:21.893Z,580.00
2023-02-12T02:48:51.886Z,580.00
2023-02-12T02:49:21.896Z,580.00
2023-02-12T02:49:51.891Z,579.00
2023-02-12T02:50:21.885Z,576.00
2023-02-12T02:50:52.005Z,578.00
2023-02-12T02:51:22.001Z,578.00
2023-02-12T02:51:52.033Z,579.00
2023-02-12T02:52:21.992Z,579.00
2023-02-12T02:52:51.998Z,579.00
2023-02-12T02:53:21.980Z,579.00
2023-02-12T02:53:51.977Z,579.00
2023-02-12T02:54:22.101Z,579.00
2023-02-12T02:54:52.094Z,580.00
2023-02-12T02:55:22.088Z,579.00
2023-02-12T02:55:52.317Z,578.00
2023-02-12T02:56:22.338Z,577.00
2023-02-12T02:56:52.324Z,576.00
2023-02-12T02:57:22.438Z,576.00
2023-02-12T02:57:52.557Z,578.00
2023-02-12T02:58:22.658Z,576.00
2023-02-12T02:58:52.741Z,574.00
2023-02-12T02:59:22.824Z,574.00
2023-02-12T02:59:52.898Z,573.00
2023-02-12T03:00:22.977Z,573.00
2023-02-12T03:00:53.136Z,573.00
2023-02-12T03:01:23.117Z,573.00
2023-02-12T03:01:53.083Z,575.00
2023-02-12T03:02:23.164Z,575.00
2023-02-12T03:02:53.301Z,574.00
2023-02-12T03:03:23.432Z,573.00
2023-02-12T03:03:53.354Z,573.00
2023-02-12T03:04:23.437Z,573.00
2023-02-12T03:04:53.520Z,573.00
2023-02-12T03:05:23.603Z,572.00
2023-02-12T03:05:54.010Z,571.00
2023-02-12T03:06:23.722Z,572.00
2023-02-12T03:06:53.801Z,573.00
2023-02-12T03:07:23.909Z,574.00
2023-02-12T03:07:53.963Z,576.00
2023-02-12T03:08:24.125Z,576.00
2023-02-12T03:08:54.128Z,577.00
2023-02-12T03:09:24.125Z,577.00
2023-02-12T03:09:54.248Z,575.00
2023-02-12T03:10:24.243Z,576.00
2023-02-12T03:10:54.246Z,577.00
2023-02-12T03:11:24.239Z,577.00
2023-02-12T03:11:54.236Z,578.00
2023-02-12T03:12:24.227Z,575.00
2023-02-12T03:12:54.222Z,577.00
2023-02-12T03:13:24.216Z,576.00
2023-02-12T03:13:54.342Z,575.00
2023-02-12T03:14:24.336Z,574.00
2023-02-12T03:14:54.334Z,574.00
2023-02-12T03:15:24.325Z,574.00
2023-02-12T03:15:54.662Z,575.00
2023-02-12T03:16:24.476Z,575.00
2023-02-12T03:16:54.465Z,576.00
2023-02-12T03:17:24.463Z,576.00
2023-02-12T03:17:54.579Z,575.00
2023-02-12T03:18:24.581Z,577.00
2023-02-12T03:18:54.581Z,577.00
2023-02-12T03:19:24.573Z,577.00
2023-02-12T03:19:54.578Z,576.00
2023-02-12T03:20:24.593Z,576.00
2023-02-12T03:20:54.689Z,575.00
2023-02-12T03:21:24.693Z,575.00
2023-02-12T03:21:54.806Z,575.00
2023-02-12T03:22:24.797Z,575.00
2023-02-12T03:22:54.824Z,575.00
2023-02-12T03:23:24.790Z,576.00
2023-02-12T03:23:54.915Z,576.00
2023-02-12T03:24:24.909Z,575.00
2023-02-12T03:24:55.036Z,574.00
2023-02-12T03:25:25.034Z,573.00
2023-02-12T03:25:55.412Z,572.00
2023-02-12T03:26:25.157Z,572.00
2023-02-12T03:26:55.155Z,573.00
2023-02-12T03:27:25.148Z,573.00
2023-02-12T03:27:55.266Z,572.00
2023-02-12T03:28:25.363Z,573.00
2023-02-12T03:28:55.338Z,574.00
2023-02-12T03:29:25.337Z,572.00
2023-02-12T03:29:55.329Z,572.00
2023-02-12T03:30:25.446Z,572.00
2023-02-12T03:30:55.611Z,572.00
2023-02-12T03:31:25.636Z,572.00
2023-02-12T03:31:55.728Z,573.00
2023-02-12T03:32:25.604Z,570.00
2023-02-12T03:32:55.597Z,569.00
2023-02-12T03:33:25.595Z,568.00
2023-02-12T03:33:55.617Z,570.00
2023-02-12T03:34:25.614Z,571.00
2023-02-12T03:34:55.641Z,572.00
2023-02-12T03:35:25.637Z,573.00
2023-02-12T03:35:56.092Z,573.00
2023-02-12T03:36:25.872Z,572.00
2023-02-12T03:36:55.872Z,570.00
2023-02-12T03:37:26.008Z,568.00
2023-02-12T03:37:55.988Z,569.00
2023-02-12T03:38:26.057Z,570.00
2023-02-12T03:38:56.188Z,571.00
2023-02-12T03:39:26.190Z,571.00
2023-02-12T03:39:56.188Z,571.00
2023-02-12T03:40:26.314Z,572.00
2023-02-12T03:40:56.314Z,573.00
2023-02-12T03:41:26.450Z,572.00
2023-02-12T03:41:56.405Z,573.00
2023-02-12T03:42:26.402Z,572.00
2023-02-12T03:42:56.396Z,571.00
2023-02-12T03:43:26.391Z,570.00
2023-02-12T03:43:56.389Z,572.00
2023-02-12T03:44:26.508Z,571.00
2023-02-12T03:44:56.507Z,571.00
2023-02-12T03:45:26.506Z,572.00
2023-02-12T03:45:57.062Z,573.00
2023-02-12T03:46:26.702Z,573.00
2023-02-12T03:46:56.697Z,573.00
2023-02-12T03:47:26.811Z,572.00
2023-02-12T03:47:56.815Z,572.00
2023-02-12T03:48:26.804Z,571.00
2023-02-12T03:48:56.921Z,571.00
2023-02-12T03:49:26.939Z,570.00
2023-02-12T03:49:56.950Z,570.00
2023-02-12T03:50:26.942Z,570.00
2023-02-12T03:50:56.936Z,570.00
2023-02-12T03:51:27.043Z,569.00
2023-02-12T03:51:57.040Z,570.00
2023-02-12T03:52:27.034Z,569.00
2023-02-12T03:52:57.148Z,569.00
2023-02-12T03:53:27.148Z,571.00
2023-02-12T03:53:57.199Z,572.00
2023-02-12T03:54:27.182Z,570.00
2023-02-12T03:54:57.180Z,570.00
2023-02-12T03:55:27.169Z,569.00
2023-02-12T03:55:57.501Z,569.00
2023-02-12T03:56:27.277Z,568.00
2023-02-12T03:56:57.395Z,568.00
2023-02-12T03:57:27.388Z,568.00
2023-02-12T03:57:57.508Z,571.00
2023-02-12T03:58:27.585Z,570.00
2023-02-12T03:58:57.668Z,570.00
2023-02-12T03:59:27.768Z,572.00
2023-02-12T03:59:57.849Z,572.00
2023-02-12T04:00:27.971Z,571.00
2023-02-12T04:00:58.110Z,573.00
2023-02-12T04:01:28.226Z,574.00
2023-02-12T04:01:58.135Z,574.00
2023-02-12T04:02:28.073Z,574.00
2023-02-12T04:02:58.161Z,571.00
2023-02-12T04:03:28.238Z,569.00
2023-02-12T04:03:58.439Z,567.00
2023-02-12T04:04:28.485Z,566.00
2023-02-12T04:04:58.459Z,567.00
2023-02-12T04:05:28.546Z,567.00
2023-02-12T04:05:58.648Z,566.00
2023-02-12T04:06:28.765Z,568.00
2023-02-12T04:06:58.847Z,569.00
2023-02-12T04:07:28.936Z,570.00
2023-02-12T04:07:59.008Z,570.00
2023-02-12T04:08:29.002Z,570.00
2023-02-12T04:08:59.164Z,569.00
2023-02-12T04:09:29.169Z,570.00
2023-02-12T04:09:59.176Z,568.00
2023-02-12T04:10:29.199Z,569.00
2023-02-12T04:10:59.195Z,569.00
2023-02-12T04:11:29.189Z,569.00
2023-02-12T04:11:59.313Z,569.00
2023-02-12T04:12:29.306Z,570.00
2023-02-12T04:12:59.421Z,571.00
2023-02-12T04:13:29.427Z,572.00
2023-02-12T04:13:59.417Z,573.00
2023-02-12T04:14:29.490Z,573.00
2023-02-12T04:14:59.482Z,573.00
2023-02-12T04:15:29.570Z,574.00
2023-02-12T04:15:59.572Z,575.00
2023-02-12T04:16:29.653Z,575.00
2023-02-12T04:16:59.852Z,575.00
2023-02-12T04:17:29.758Z,573.00
2023-02-12T04:17:59.784Z,574.00
2023-02-12T04:18:29.805Z,573.00
2023-02-12T04:18:59.948Z,572.00
2023-02-12T04:19:29.942Z,573.00
2023-02-12T04:19:59.948Z,574.00
2023-02-12T04:20:30.057Z,574.00
2023-02-12T04:21:00.100Z,574.00
2023-02-12T04:21:30.068Z,576.00
2023-02-12T04:22:00.098Z,574.00
2023-02-12T04:22:30.073Z,573.00
2023-02-12T04:23:00.207Z,572.00
2023-02-12T04:23:30.307Z,571.00
2023-02-12T04:24:00.310Z,570.00
2023-02-12T04:24:30.298Z,569.00
2023-02-12T04:25:00.462Z,566.00
2023-02-12T04:25:30.444Z,567.00
2023-02-12T04:26:00.456Z,566.00
2023-02-12T04:26:30.503Z,566.00
2023-02-12T04:27:00.465Z,566.00
2023-02-12T04:27:30.630Z,568.00
2023-02-12T04:28:00.700Z,567.00
2023-02-12T04:28:30.731Z,568.00
2023-02-12T04:29:00.704Z,567.00
2023-02-12T04:29:30.709Z,566.00
2023-02-12T04:30:00.705Z,567.00
2023-02-12T04:30:30.783Z,569.00
2023-02-12T04:31:00.956Z,573.00
2023-02-12T04:31:30.943Z,573.00
2023-02-12T04:32:00.871Z,574.00
2023-02-12T04:32:31.004Z,576.00
2023-02-12T04:33:00.993Z,576.00
2023-02-12T04:33:31.111Z,576.00
2023-02-12T04:34:01.139Z,575.00
2023-02-12T04:34:31.238Z,576.00
2023-02-12T04:35:01.263Z,575.00
2023-02-12T04:35:31.366Z,574.00
2023-02-12T04:36:01.362Z,574.00
2023-02-12T04:36:31.357Z,572.00
2023-02-12T04:37:01.365Z,570.00
2023-02-12T04:37:31.382Z,569.00
2023-02-12T04:38:01.360Z,569.00
2023-02-12T04:38:31.360Z,570.00
2023-02-12T04:39:01.480Z,570.00
2023-02-12T04:39:31.483Z,572.00
2023-02-12T04:40:01.469Z,571.00
2023-02-12T04:40:31.614Z,572.00
2023-02-12T04:41:01.602Z,573.00
2023-02-12T04:41:31.670Z,571.00
2023-02-12T04:42:01.633Z,571.00
2023-02-12T04:42:31.674Z,571.00
2023-02-12T04:43:01.773Z,572.00
2023-02-12T04:43:32.786Z,573.00
2023-02-12T04:44:01.849Z,575.00
2023-02-12T04:44:31.956Z,576.00
2023-02-12T04:45:01.948Z,576.00
2023-02-12T04:45:31.997Z,575.00
2023-02-12T04:46:02.042Z,577.00
2023-02-12T04:46:32.117Z,579.00
2023-02-12T04:47:02.161Z,580.00
2023-02-12T04:47:32.276Z,580.00
2023-02-12T04:48:02.414Z,580.00
2023-02-12T04:48:32.409Z,580.00
2023-02-12T04:49:02.526Z,580.00
2023-02-12T04:49:32.542Z,579.00
2023-02-12T04:50:02.546Z,577.00
2023-02-12T04:50:32.537Z,576.00
2023-02-12T04:51:02.581Z,576.00
2023-02-12T04:51:32.546Z,575.00
2023-02-12T04:52:02.663Z,576.00
2023-02-12T04:52:32.667Z,576.00
2023-02-12T04:53:02.677Z,577.00
2023-02-12T04:53:32.669Z,576.00
2023-02-12T04:54:02.661Z,575.00
2023-02-12T04:54:32.660Z,574.00
2023-02-12T04:55:02.779Z,574.00
2023-02-12T04:55:32.792Z,574.00
2023-02-12T04:56:02.810Z,574.00
2023-02-12T04:56:32.905Z,574.00
2023-02-12T04:57:02.908Z,574.00
2023-02-12T04:57:32.896Z,573.00
2023-02-12T04:58:03.004Z,573.00
2023-02-12T04:58:33.088Z,573.00
2023-02-12T04:59:03.166Z,573.00
2023-02-12T04:59:33.248Z,574.00
2023-02-12T05:00:03.328Z,574.00
2023-02-12T05:00:33.411Z,575.00
2023-02-12T05:01:03.513Z,575.00
2023-02-12T05:01:33.607Z,575.00
2023-02-12T05:02:03.663Z,574.00
2023-02-12T05:02:33.743Z,574.00
2023-02-12T05:03:03.822Z,574.00
2023-02-12T05:03:33.910Z,575.00
2023-02-12T05:04:03.986Z,575.00
2023-02-12T05:04:34.076Z,575.00
2023-02-12T05:05:04.216Z,575.00
2023-02-12T05:05:34.219Z,573.00
2023-02-12T05:06:04.314Z,574.00
2023-02-12T05:06:34.379Z,575.00
2023-02-12T05:07:04.476Z,577.00
2023-02-12T05:07:34.578Z,577.00
2023-02-12T05:08:04.650Z,578.00
2023-02-12T05:08:34.655Z,579.00
2023-02-12T05:09:04.651Z,577.00
2023-02-12T05:09:34.640Z,577.00
2023-02-12T05:10:04.630Z,577.00
2023-02-12T05:10:34.625Z,577.00
2023-02-12T05:11:04.776Z,577.00
2023-02-12T05:11:34.750Z,576.00
2023-02-12T05:12:04.740Z,577.00
2023-02-12T05:12:34.733Z,576.00
2023-02-12T05:13:04.852Z,576.00
2023-02-12T05:13:34.848Z,575.00
2023-02-12T05:14:04.848Z,574.00
2023-02-12T05:14:34.834Z,574.00
2023-02-12T05:15:04.835Z,575.00
2023-02-12T05:15:35.030Z,574.00
2023-02-12T05:16:05.110Z,574.00
2023-02-12T05:16:35.109Z,574.00
2023-02-12T05:17:05.226Z,574.00
2023-02-12T05:17:35.353Z,575.00
2023-02-12T05:18:05.346Z,575.00
2023-02-12T05:18:35.464Z,575.00
2023-02-12T05:19:05.611Z,575.00
2023-02-12T05:19:35.591Z,576.00
2023-02-12T05:20:05.598Z,574.00
2023-02-12T05:20:35.696Z,575.00
2023-02-12T05:21:05.711Z,574.00
2023-02-12T05:21:35.696Z,572.00
2023-02-12T05:22:05.811Z,571.00
2023-02-12T05:22:35.822Z,571.00
2023-02-12T05:23:05.811Z,572.00
2023-02-12T05:23:35.931Z,572.00
2023-02-12T05:24:06.059Z,572.00
2023-02-12T05:24:36.162Z,573.00
2023-02-12T05:25:06.170Z,573.00
2023-02-12T05:25:36.169Z,572.00
2023-02-12T05:26:06.284Z,572.00
2023-02-12T05:26:36.430Z,573.00
2023-02-12T05:27:06.407Z,573.00
2023-02-12T05:27:36.401Z,574.00
2023-02-12T05:28:06.442Z,572.00
2023-02-12T05:28:36.622Z,572.00
2023-02-12T05:29:06.627Z,571.00
2023-02-12T05:29:36.741Z,573.00
2023-02-12T05:30:06.721Z,571.00
2023-02-12T05:30:36.861Z,571.00
2023-02-12T05:31:06.898Z,570.00
2023-02-12T05:31:36.896Z,570.00
2023-02-12T05:32:07.071Z,571.00
2023-02-12T05:32:36.874Z,569.00
2023-02-12T05:33:06.982Z,567.00
2023-02-12T05:33:36.983Z,565.00
2023-02-12T05:34:07.102Z,565.00
2023-02-12T05:34:37.250Z,566.00
2023-02-12T05:35:07.222Z,567.00
2023-02-12T05:35:37.338Z,568.00
2023-02-12T05:36:07.457Z,569.00
2023-02-12T05:36:37.454Z,568.00
2023-02-12T05:37:07.578Z,567.00
2023-02-12T05:37:37.569Z,567.00
2023-02-12T05:38:07.686Z,569.00
2023-02-12T05:38:37.803Z,569.00
2023-02-12T05:39:07.800Z,568.00
2023-02-12T05:39:37.795Z,568.00
2023-02-12T05:40:07.914Z,568.00
2023-02-12T05:40:38.026Z,571.00
2023-02-12T05:41:08.022Z,572.00
2023-02-12T05:41:38.037Z,572.00
2023-02-12T05:42:08.044Z,572.00
2023-02-12T05:42:38.051Z,572.00
2023-02-12T05:43:08.029Z,572.00
2023-02-12T05:43:38.156Z,573.00
2023-02-12T05:44:08.177Z,572.00
2023-02-12T05:44:38.142Z,571.00
2023-02-12T05:45:08.253Z,570.00
2023-02-12T05:45:38.259Z,571.00
2023-02-12T05:46:08.407Z,571.00
2023-02-12T05:46:38.412Z,571.00
2023-02-12T05:47:08.435Z,571.00
2023-02-12T05:47:38.554Z,572.00
2023-02-12T05:48:08.671Z,572.00
2023-02-12T05:48:38.789Z,571.00
2023-02-12T05:49:08.817Z,573.00
2023-02-12T05:49:38.947Z,572.00
2023-02-12T05:50:08.930Z,571.00
2023-02-12T05:50:38.920Z,573.00
2023-02-12T05:51:08.915Z,572.00
2023-02-12T05:51:38.912Z,573.00
2023-02-12T05:52:08.917Z,575.00
2023-02-12T05:52:39.031Z,575.00
2023-02-12T05:53:09.026Z,576.00
2023-02-12T05:53:39.159Z,575.00
2023-02-12T05:54:09.140Z,575.00
2023-02-12T05:54:39.259Z,577.00
2023-02-12T05:55:09.269Z,577.00
2023-02-12T05:55:39.246Z,577.00
2023-02-12T05:56:09.369Z,577.00
2023-02-12T05:56:39.367Z,576.00
2023-02-12T05:57:09.358Z,576.00
2023-02-12T05:57:39.498Z,577.00
2023-02-12T05:58:09.468Z,577.00
2023-02-12T05:58:39.464Z,577.00
2023-02-12T05:59:09.598Z,575.00
2023-02-12T05:59:39.588Z,574.00
2023-02-12T06:00:09.574Z,574.00
2023-02-12T06:00:39.689Z,573.00
2023-02-12T06:01:09.689Z,573.00
2023-02-12T06:01:39.689Z,572.00
2023-02-12T06:02:09.675Z,573.00
2023-02-12T06:02:39.863Z,572.00
2023-02-12T06:03:09.876Z,572.00
2023-02-12T06:03:40.020Z,572.00
2023-02-12T06:04:10.115Z,574.00
2023-02-12T06:04:40.105Z,576.00
2023-02-12T06:05:10.100Z,576.00
2023-02-12T06:05:40.209Z,575.00
2023-02-12T06:06:10.209Z,574.00
2023-02-12T06:06:40.203Z,573.00
2023-02-12T06:07:10.192Z,574.00
2023-02-12T06:07:40.450Z,574.00
2023-02-12T06:08:10.326Z,574.00
2023-02-12T06:08:40.358Z,573.00
2023-02-12T06:09:10.383Z,574.00
2023-02-12T06:09:40.436Z,573.00
2023-02-12T06:10:10.473Z,571.00
2023-02-12T06:10:40.513Z,572.00
2023-02-12T06:11:10.542Z,571.00
2023-02-12T06:11:40.580Z,572.00
2023-02-12T06:12:10.633Z,571.00
2023-02-12T06:12:40.661Z,572.00
2023-02-12T06:13:10.716Z,573.00
2023-02-12T06:13:40.742Z,572.00
2023-02-12T06:14:10.757Z,572.00
2023-02-12T06:14:40.809Z,572.00